Time;durP1;ratioP1;P1;durP2;ratioP2;P2;SDS_P1;SDS_P2;PMS_P1;PMS_P2;Temp;Humidity;BMP_temperature;BMP_pressure;BME280_temperature;BME280_humidity;BME280_pressure;Samples;Min_cycle;Max_cycle;Signal;HPM_P1;HPM_P2
2023/03/11 00:01:12;;;;;;;6.10;1.20;;;;;;;8.27;84.22;97529.59;108057;1274;22631;-80
2023/03/11 00:03:43;;;;;;;4.00;0.70;;;;;;;8.24;84.13;97530.96;108149;1268;22631;-79
2023/03/11 00:06:14;;;;;;;3.70;0.70;;;;;;;8.22;84.28;97533.88;108311;1267;22576;-80
2023/03/11 00:08:44;;;;;;;3.10;0.60;;;;;;;8.21;84.38;97531.17;108228;1272;25285;-79
2023/03/11 00:11:15;;;;;;;2.50;0.60;;;;;;;8.20;84.41;97531.77;108224;1274;25415;-79
2023/03/11 00:13:46;;;;;;;3.70;0.50;;;;;;;8.19;84.40;97536.10;108305;1274;25334;-79
2023/03/11 00:16:17;;;;;;;4.70;0.60;;;;;;;8.18;84.46;97533.73;108289;1268;22643;-79
2023/03/11 00:18:51;;;;;;;3.60;0.60;;;;;;;8.15;84.38;97531.84;107895;1272;22770;-79
2023/03/11 00:21:22;;;;;;;3.20;1.00;;;;;;;8.14;84.52;97537.59;107853;1267;22727;-79
2023/03/11 00:23:53;;;;;;;4.40;0.50;;;;;;;8.13;84.36;97530.98;107984;1274;22589;-79
2023/03/11 00:26:23;;;;;;;4.80;0.60;;;;;;;8.13;84.57;97528.20;107953;1271;22576;-80
2023/03/11 00:28:54;;;;;;;3.70;0.60;;;;;;;8.12;84.37;97531.29;107954;1275;25263;-80
2023/03/11 00:31:26;;;;;;;3.70;0.50;;;;;;;8.11;84.33;97527.87;108029;1270;22507;-80
2023/03/11 00:33:57;;;;;;;2.50;0.40;;;;;;;8.10;83.86;97526.48;108011;1275;25240;-80
2023/03/11 00:36:32;;;;;;;2.50;0.50;;;;;;;8.10;83.51;97527.48;108063;1269;24192;-79
2023/03/11 00:39:05;;;;;;;2.70;0.30;;;;;;;8.10;83.12;97532.84;108000;1275;25425;-80
2023/03/11 00:41:37;;;;;;;1.20;0.30;;;;;;;8.11;82.73;97532.58;108103;1274;24222;-80
2023/03/11 00:44:07;;;;;;;3.00;0.30;;;;;;;8.11;82.18;97530.25;108031;1268;22480;-78
2023/03/11 00:46:38;;;;;;;0.90;0.10;;;;;;;8.12;82.26;97524.82;107820;1271;22728;-79
2023/03/11 00:49:10;;;;;;;1.50;0.30;;;;;;;8.11;81.87;97527.46;107815;1271;22525;-79
2023/03/11 00:51:41;;;;;;;2.10;0.30;;;;;;;8.10;81.49;97522.79;107935;1269;22517;-79
2023/03/11 00:54:11;;;;;;;0.80;0.20;;;;;;;8.10;81.66;97519.45;107892;1260;22537;-79
2023/03/11 00:56:42;;;;;;;2.20;0.30;;;;;;;8.09;81.28;97518.60;107739;1272;22582;-79
2023/03/11 00:59:13;;;;;;;5.40;0.50;;;;;;;8.09;81.22;97520.37;107939;1269;23016;-80
2023/03/11 01:01:43;;;;;;;3.10;0.30;;;;;;;8.07;81.24;97522.61;107931;1274;24360;-78
2023/03/11 01:04:15;;;;;;;2.60;0.30;;;;;;;8.07;80.90;97524.08;108102;1262;22513;-80
2023/03/11 01:06:46;;;;;;;2.10;0.30;;;;;;;8.06;80.98;97529.36;108341;1270;22544;-80
2023/03/11 01:09:17;;;;;;;0.60;0.10;;;;;;;8.04;81.10;97527.11;107839;1275;22545;-79
2023/03/11 01:11:47;;;;;;;2.90;0.30;;;;;;;8.03;81.06;97527.79;107860;1275;22524;-79
2023/03/11 01:14:18;;;;;;;2.00;0.30;;;;;;;8.01;80.75;97528.36;107723;1271;25426;-78
2023/03/11 01:16:49;;;;;;;2.90;0.30;;;;;;;7.99;80.52;97534.11;107813;1271;22521;-80
2023/03/11 01:19:20;;;;;;;2.50;0.30;;;;;;;7.97;80.41;97534.34;108311;1271;22530;-80
2023/03/11 01:21:50;;;;;;;1.40;0.30;;;;;;;7.96;80.58;97532.44;108344;1274;25329;-80
2023/03/11 01:24:21;;;;;;;0.90;0.30;;;;;;;7.94;80.72;97537.36;108277;1267;22546;-80
2023/03/11 01:26:52;;;;;;;1.30;0.30;;;;;;;7.92;80.89;97537.84;108275;1275;22522;-79
2023/03/11 01:29:22;;;;;;;1.70;0.40;;;;;;;7.89;80.89;97542.67;107928;1274;22466;-79
2023/03/11 01:31:53;;;;;;;3.20;0.30;;;;;;;7.85;81.07;97544.44;108149;1275;22555;-80
2023/03/11 01:34:24;;;;;;;0.80;0.20;;;;;;;7.81;81.61;97551.58;108291;1270;24212;-80
2023/03/11 01:36:54;;;;;;;1.10;0.20;;;;;;;7.75;82.17;97559.02;107833;1274;25230;-80
2023/03/11 01:39:25;;;;;;;1.90;0.30;;;;;;;7.69;82.71;97563.59;108349;1274;22535;-79
2023/03/11 01:41:56;;;;;;;2.40;0.40;;;;;;;7.62;83.14;97557.58;107828;1274;22630;-78
2023/03/11 01:44:27;;;;;;;1.40;0.20;;;;;;;7.55;83.63;97554.59;107846;1269;22630;-78
2023/03/11 01:47:36;;;;;;;2.30;0.20;;;;;;;7.47;83.77;97551.64;107795;1262;23618;-79
2023/03/11 01:50:12;;;;;;;2.00;0.20;;;;;;;7.38;83.71;97552.86;107938;1274;25421;-78
2023/03/11 01:52:44;;;;;;;0.70;0.30;;;;;;;7.33;84.41;97554.17;107789;1275;22525;-79
2023/03/11 01:55:18;;;;;;;1.00;0.20;;;;;;;7.28;84.32;97554.03;107748;1268;22534;-79
2023/03/11 01:57:50;;;;;;;1.00;0.20;;;;;;;7.23;84.56;97559.73;107850;1275;22641;-78
2023/03/11 02:00:21;;;;;;;0.70;0.20;;;;;;;7.18;84.65;97556.67;107930;1267;22746;-79
2023/03/11 02:02:54;;;;;;;0.80;0.10;;;;;;;7.15;84.75;97559.21;108040;1275;23440;-79
2023/03/11 02:05:25;;;;;;;1.60;0.20;;;;;;;7.12;85.00;97562.18;107969;1274;22517;-79
2023/03/11 02:07:58;;;;;;;1.20;0.20;;;;;;;7.08;85.46;97564.29;108029;1274;22540;-79
2023/03/11 02:10:30;;;;;;;0.60;0.10;;;;;;;7.04;85.61;97559.89;107980;1262;24393;-79
2023/03/11 02:13:02;;;;;;;2.70;0.30;;;;;;;7.01;85.78;97559.82;108010;1272;22756;-79
2023/03/11 02:15:33;;;;;;;1.10;0.20;;;;;;;6.97;85.88;97555.91;107894;1271;23888;-79
2023/03/11 02:18:08;;;;;;;0.30;0.10;;;;;;;6.94;85.86;97556.70;107910;1274;22584;-79
2023/03/11 02:20:46;;;;;;;1.40;0.20;;;;;;;6.93;85.90;97559.40;107951;1269;22569;-79
2023/03/11 02:23:23;;;;;;;0.60;0.20;;;;;;;6.90;86.04;97559.83;107907;1268;25447;-79
2023/03/11 02:26:02;;;;;;;0.90;0.20;;;;;;;6.90;86.32;97561.02;107727;1271;22482;-79
2023/03/11 02:28:35;;;;;;;2.70;0.20;;;;;;;6.88;86.44;97560.40;107836;1271;22643;-79
2023/03/11 02:31:06;;;;;;;1.60;0.30;;;;;;;6.86;86.71;97561.38;107967;1269;22520;-79
2023/03/11 02:33:39;;;;;;;0.80;0.30;;;;;;;6.83;86.89;97557.32;107861;1271;22758;-78
2023/03/11 02:36:35;;;;;;;1.80;0.20;;;;;;;6.81;87.02;97565.60;107587;1262;22642;-78
2023/03/11 02:39:06;;;;;;;3.00;0.30;;;;;;;6.79;87.27;97567.48;107612;1268;22524;-78
2023/03/11 02:41:40;;;;;;;1.80;0.30;;;;;;;6.77;87.47;97570.11;107530;1274;22517;-78
2023/03/11 02:44:14;;;;;;;1.10;0.30;;;;;;;6.75;87.56;97566.55;107484;1275;24385;-77
2023/03/11 02:46:45;;;;;;;1.90;0.30;;;;;;;6.74;87.68;97565.96;107490;1270;22552;-78
2023/03/11 02:49:16;;;;;;;2.20;0.30;;;;;;;6.73;87.84;97562.14;107492;1272;22529;-78
2023/03/11 02:51:47;;;;;;;1.50;0.30;;;;;;;6.74;88.04;97557.80;107401;1271;24191;-78
2023/03/11 02:54:17;;;;;;;3.10;0.50;;;;;;;6.77;88.16;97552.69;107453;1275;22731;-78
2023/03/11 02:56:48;;;;;;;1.20;0.40;;;;;;;6.76;88.20;97556.27;107456;1267;24214;-78
2023/03/11 02:59:19;;;;;;;2.40;0.40;;;;;;;6.73;88.09;97550.50;107321;1274;23131;-78
2023/03/11 03:01:49;;;;;;;2.00;0.40;;;;;;;6.72;87.97;97551.83;107228;1274;22630;-79
2023/03/11 03:04:20;;;;;;;1.10;0.30;;;;;;;6.68;88.12;97553.12;107412;1275;22517;-76
2023/03/11 03:06:51;;;;;;;2.00;0.30;;;;;;;6.67;88.22;97557.36;107728;1269;22507;-79
2023/03/11 03:09:21;;;;;;;1.10;0.40;;;;;;;6.64;88.35;97560.91;107583;1272;24206;-79
2023/03/11 03:11:52;;;;;;;1.10;0.40;;;;;;;6.62;88.59;97562.23;107585;1275;22919;-78
2023/03/11 03:14:22;;;;;;;1.90;0.40;;;;;;;6.59;88.74;97566.70;107551;1275;25527;-78
2023/03/11 03:16:53;;;;;;;1.40;0.40;;;;;;;6.55;88.73;97579.64;107517;1269;22495;-78
2023/03/11 03:19:24;;;;;;;2.40;0.70;;;;;;;6.51;88.96;97584.70;107394;1270;25428;-79
2023/03/11 03:21:54;;;;;;;2.50;0.40;;;;;;;6.48;89.40;97615.91;107508;1267;22512;-79
2023/03/11 03:24:25;;;;;;;1.90;0.10;;;;;;;6.35;87.38;97625.21;107425;1267;25407;-79
2023/03/11 03:26:56;;;;;;;0.50;0.10;;;;;;;6.03;84.11;97632.45;107738;1275;24181;-78
2023/03/11 03:29:27;;;;;;;1.00;0.00;;;;;;;5.71;83.21;97643.09;107494;1271;22512;-79
2023/03/11 03:31:57;;;;;;;0.20;0.10;;;;;;;5.39;82.47;97650.21;107553;1272;22613;-79
2023/03/11 03:34:28;;;;;;;0.90;0.10;;;;;;;5.13;82.98;97655.39;107498;1271;22729;-79
2023/03/11 03:36:59;;;;;;;0.00;0.00;;;;;;;4.92;82.61;97664.15;107522;1275;22514;-78
2023/03/11 03:39:29;;;;;;;2.10;0.10;;;;;;;4.74;83.22;97668.01;107741;1267;22522;-79
2023/03/11 03:42:00;;;;;;;0.20;0.00;;;;;;;4.60;83.49;97665.27;107902;1274;22472;-80
2023/03/11 03:44:32;;;;;;;0.40;0.10;;;;;;;4.47;82.77;97668.04;107925;1271;23157;-80
2023/03/11 03:47:03;;;;;;;0.90;0.00;;;;;;;4.34;83.05;97674.80;107793;1269;24210;-80
2023/03/11 03:49:33;;;;;;;0.70;0.10;;;;;;;4.24;83.25;97678.21;108127;1274;22529;-80
2023/03/11 03:52:07;;;;;;;0.10;0.00;;;;;;;4.17;83.38;97680.15;108033;1275;24649;-80
2023/03/11 03:54:38;;;;;;;0.30;0.10;;;;;;;4.07;82.84;97683.29;107714;1267;25437;-79
2023/03/11 03:57:09;;;;;;;0.80;0.10;;;;;;;4.00;82.59;97689.54;107757;1267;22537;-79
2023/03/11 03:59:39;;;;;;;0.30;0.10;;;;;;;3.92;82.03;97691.97;107725;1275;25935;-79
2023/03/11 04:02:10;;;;;;;0.90;0.10;;;;;;;3.85;81.80;97693.89;107625;1272;22534;-78
2023/03/11 04:04:41;;;;;;;0.10;0.00;;;;;;;3.77;81.26;97698.38;107440;1271;22540;-79
2023/03/11 04:07:11;;;;;;;0.80;0.10;;;;;;;3.71;81.40;97702.20;107577;1274;22623;-78
2023/03/11 04:09:43;;;;;;;1.80;0.20;;;;;;;3.65;80.62;97712.15;107452;1275;23004;-78
2023/03/11 04:12:16;;;;;;;1.20;0.00;;;;;;;3.59;81.11;97716.13;107587;1269;22567;-79
2023/03/11 04:14:47;;;;;;;0.10;0.00;;;;;;;3.55;81.33;97726.19;107784;1272;22586;-80
2023/03/11 04:17:18;;;;;;;0.10;0.00;;;;;;;3.50;81.34;97722.90;107531;1272;22642;-78
2023/03/11 04:19:48;;;;;;;1.10;0.10;;;;;;;3.43;80.17;97724.76;107489;1269;22484;-77
2023/03/11 04:22:19;;;;;;;0.00;0.00;;;;;;;3.34;80.32;97717.68;107480;1269;22501;-78
2023/03/11 04:24:50;;;;;;;0.00;0.00;;;;;;;3.26;80.12;97719.05;107454;1269;22508;-78
2023/03/11 04:27:20;;;;;;;0.20;0.00;;;;;;;3.19;80.71;97725.94;107455;1273;25564;-78
2023/03/11 04:29:51;;;;;;;0.30;0.00;;;;;;;3.13;80.84;97729.59;107472;1274;22515;-79
2023/03/11 04:32:22;;;;;;;0.20;0.00;;;;;;;3.06;80.43;97732.86;107507;1275;22555;-78
2023/03/11 04:34:52;;;;;;;0.20;0.00;;;;;;;3.01;80.68;97735.07;107452;1275;22768;-79
2023/03/11 04:37:27;;;;;;;0.20;0.10;;;;;;;2.97;80.63;97742.09;107511;1274;22531;-79
2023/03/11 04:39:57;;;;;;;0.10;0.00;;;;;;;2.93;80.87;97740.15;107495;1275;22623;-78
2023/03/11 04:42:28;;;;;;;0.80;0.10;;;;;;;2.89;80.88;97747.87;107489;1275;25583;-79
2023/03/11 04:44:59;;;;;;;1.70;0.00;;;;;;;2.84;80.75;97750.60;107444;1275;22660;-78
2023/03/11 04:47:30;;;;;;;2.20;0.20;;;;;;;2.78;81.04;97753.25;107495;1275;22635;-78
2023/03/11 04:50:00;;;;;;;1.00;0.10;;;;;;;2.71;81.09;97758.08;107492;1272;22818;-79
2023/03/11 04:52:31;;;;;;;2.40;0.20;;;;;;;2.65;81.42;97758.33;107378;1272;22593;-79
2023/03/11 04:55:02;;;;;;;0.60;0.10;;;;;;;2.61;81.55;97766.30;107356;1271;25479;-78
2023/03/11 04:57:33;;;;;;;1.50;0.10;;;;;;;2.54;81.55;97768.41;107383;1271;22575;-79
2023/03/11 05:00:04;;;;;;;1.60;0.10;;;;;;;2.49;81.96;97764.95;107427;1274;22524;-78
2023/03/11 05:02:35;;;;;;;0.50;0.00;;;;;;;2.44;82.36;97777.52;107363;1274;22537;-78
2023/03/11 05:05:08;;;;;;;0.60;0.10;;;;;;;2.38;82.80;97782.52;107564;1274;22978;-81
2023/03/11 05:07:39;;;;;;;0.20;0.00;;;;;;;2.31;82.79;97781.88;108472;1267;22512;-80
2023/03/11 05:10:12;;;;;;;0.10;0.00;;;;;;;2.26;83.03;97790.98;108413;1273;22515;-79
2023/03/11 05:12:43;;;;;;;0.30;0.10;;;;;;;2.22;83.29;97796.29;107914;1273;22541;-79
2023/03/11 05:15:14;;;;;;;0.00;0.00;;;;;;;2.17;83.56;97797.46;107975;1273;22528;-79
2023/03/11 05:17:44;;;;;;;0.30;0.00;;;;;;;2.11;83.97;97801.34;108015;1275;25417;-79
2023/03/11 05:20:15;;;;;;;0.40;0.10;;;;;;;2.05;84.20;97801.23;108094;1274;22629;-78
2023/03/11 05:22:46;;;;;;;0.10;0.00;;;;;;;2.01;84.69;97802.52;107862;1267;22547;-78
2023/03/11 05:25:17;;;;;;;0.30;0.10;;;;;;;1.95;84.65;97805.09;107468;1272;23316;-78
2023/03/11 05:27:47;;;;;;;2.10;0.20;;;;;;;1.92;85.14;97812.74;107774;1271;24188;-79
2023/03/11 05:30:18;;;;;;;0.70;0.10;;;;;;;1.87;85.30;97814.19;107878;1268;22525;-81
2023/03/11 05:32:50;;;;;;;0.80;0.10;;;;;;;1.84;85.75;97821.38;108343;1267;22522;-80
2023/03/11 05:35:20;;;;;;;0.80;0.20;;;;;;;1.78;85.72;97824.94;108178;1269;23176;-80
2023/03/11 05:37:53;;;;;;;0.60;0.20;;;;;;;1.74;85.91;97828.20;108333;1267;22671;-80
2023/03/11 05:40:24;;;;;;;0.60;0.10;;;;;;;1.72;86.14;97829.17;108466;1267;22597;-80
2023/03/11 05:42:55;;;;;;;1.10;0.20;;;;;;;1.70;86.39;97831.67;108288;1271;25272;-79
2023/03/11 05:45:26;;;;;;;0.60;0.20;;;;;;;1.68;86.34;97833.30;108239;1271;22909;-80
2023/03/11 05:47:57;;;;;;;0.20;0.10;;;;;;;1.65;86.48;97829.00;108446;1275;23214;-79
2023/03/11 05:50:27;;;;;;;0.70;0.20;;;;;;;1.63;86.89;97830.98;108173;1270;22550;-80
2023/03/11 05:52:58;;;;;;;0.60;0.20;;;;;;;1.61;86.98;97835.24;108501;1267;22778;-80
2023/03/11 05:55:29;;;;;;;1.10;0.20;;;;;;;1.60;87.04;97840.98;108597;1273;22536;-80
2023/03/11 05:57:59;;;;;;;0.50;0.20;;;;;;;1.59;86.94;97842.77;108410;1274;22570;-81
2023/03/11 06:00:30;;;;;;;0.50;0.20;;;;;;;1.58;87.32;97849.96;108032;1267;22569;-80
2023/03/11 06:03:01;;;;;;;1.50;0.40;;;;;;;1.55;87.44;97850.14;107944;1256;25284;-79
2023/03/11 06:05:32;;;;;;;1.90;0.50;;;;;;;1.52;87.95;97852.36;108041;1272;25329;-78
2023/03/11 06:08:03;;;;;;;1.30;0.40;;;;;;;1.48;88.19;97856.89;107730;1273;22513;-77
2023/03/11 06:10:33;;;;;;;1.70;0.60;;;;;;;1.44;88.34;97862.61;107597;1271;22550;-78
2023/03/11 06:13:04;;;;;;;1.80;0.50;;;;;;;1.40;88.24;97862.45;107589;1274;22528;-78
2023/03/11 06:15:35;;;;;;;2.20;0.40;;;;;;;1.37;88.60;97869.15;107638;1263;26759;-78
2023/03/11 06:18:06;;;;;;;2.80;0.80;;;;;;;1.33;88.70;97874.88;107625;1272;25406;-78
2023/03/11 06:20:37;;;;;;;2.60;0.60;;;;;;;1.28;88.96;97881.84;107604;1273;23848;-78
2023/03/11 06:23:08;;;;;;;2.20;0.50;;;;;;;1.24;88.97;97884.02;107596;1272;23221;-78
2023/03/11 06:25:39;;;;;;;1.90;0.40;;;;;;;1.21;89.39;97889.70;107540;1273;25463;-78
2023/03/11 06:28:10;;;;;;;1.30;0.50;;;;;;;1.16;89.46;97893.17;107501;1272;26528;-78
2023/03/11 06:30:40;;;;;;;3.20;0.60;;;;;;;1.11;90.03;97898.38;107508;1273;22526;-78
2023/03/11 06:33:13;;;;;;;3.50;0.70;;;;;;;1.06;89.86;97901.38;107469;1274;24191;-78
2023/03/11 06:35:44;;;;;;;3.00;0.50;;;;;;;1.03;90.13;97909.47;107521;1274;22508;-77
2023/03/11 06:38:14;;;;;;;1.80;0.60;;;;;;;1.01;90.02;97909.67;107528;1267;23469;-77
2023/03/11 06:40:45;;;;;;;3.00;0.70;;;;;;;1.00;90.44;97918.92;107839;1268;25348;-79
2023/03/11 06:43:16;;;;;;;2.10;0.60;;;;;;;0.97;90.93;97923.44;108255;1270;22659;-80
2023/03/11 06:45:47;;;;;;;1.80;0.60;;;;;;;0.97;90.62;97928.83;108251;1274;22564;-79
2023/03/11 06:48:18;;;;;;;1.50;0.60;;;;;;;0.96;90.89;97935.05;108027;1274;23167;-80
2023/03/11 06:50:56;;;;;;;3.80;0.50;;;;;;;0.95;91.00;97936.37;107885;1275;22531;-79
2023/03/11 06:53:28;;;;;;;3.00;0.70;;;;;;;0.93;91.26;97948.07;108001;1274;22527;-79
2023/03/11 06:56:04;;;;;;;4.50;0.80;;;;;;;0.92;90.99;97949.45;107789;1271;22558;-79
2023/03/11 06:58:36;;;;;;;5.00;0.90;;;;;;;0.91;91.32;97958.08;108218;1263;22666;-80
2023/03/11 07:01:10;;;;;;;3.90;0.90;;;;;;;0.91;91.29;97967.56;108301;1272;22554;-80
2023/03/11 07:03:41;;;;;;;5.00;0.90;;;;;;;0.92;91.50;97977.32;110077;1273;27464;-77
2023/03/11 07:06:15;;;;;;;4.50;0.80;;;;;;;0.92;91.74;97982.73;108050;1270;22462;-79
2023/03/11 07:08:47;;;;;;;3.20;0.70;;;;;;;0.93;91.60;97989.03;107995;1274;22529;-79
2023/03/11 07:11:21;;;;;;;2.70;0.70;;;;;;;0.94;92.03;97990.89;108320;1270;23438;-79
2023/03/11 07:13:53;;;;;;;3.60;0.80;;;;;;;0.94;92.18;98000.44;107954;1268;22469;-79
2023/03/11 07:16:25;;;;;;;2.40;0.60;;;;;;;0.94;92.16;97999.49;107808;1271;22963;-79
2023/03/11 07:18:59;;;;;;;3.40;0.60;;;;;;;0.94;91.94;98009.54;107890;1261;22547;-79
2023/03/11 07:21:32;;;;;;;1.90;0.50;;;;;;;0.94;91.97;98017.75;107758;1260;181948;-78
2023/03/11 07:24:04;;;;;;;3.00;0.60;;;;;;;0.92;91.79;98020.57;107656;1276;22554;-79
2023/03/11 07:26:36;;;;;;;3.60;0.80;;;;;;;0.91;91.95;98029.25;108250;1276;22534;-82
2023/03/11 07:29:07;;;;;;;2.70;0.80;;;;;;;0.90;92.26;98038.45;108682;1270;22579;-80
2023/03/11 07:31:38;;;;;;;3.40;0.50;;;;;;;0.88;92.67;98045.65;108694;1276;22744;-80
2023/03/11 07:34:12;;;;;;;2.60;0.70;;;;;;;0.86;92.57;98053.11;108606;1271;22537;-80
2023/03/11 07:36:43;;;;;;;3.60;0.80;;;;;;;0.85;92.65;98057.43;108150;1276;22560;-80
2023/03/11 07:39:18;;;;;;;2.90;0.70;;;;;;;0.83;92.68;98064.38;108601;1270;22600;-80
2023/03/11 07:41:48;;;;;;;3.50;0.90;;;;;;;0.82;92.94;98074.26;108562;1276;22556;-79
2023/03/11 07:44:20;;;;;;;4.90;1.40;;;;;;;0.81;93.23;98072.48;108157;1265;25502;-80
2023/03/11 07:46:51;;;;;;;4.40;0.80;;;;;;;0.80;93.39;98083.75;108507;1271;22525;-81
2023/03/11 07:49:22;;;;;;;5.10;0.90;;;;;;;0.81;93.47;98091.50;108680;1271;22540;-79
2023/03/11 07:51:52;;;;;;;3.70;0.60;;;;;;;0.79;93.75;98100.60;108095;1276;23393;-80
2023/03/11 07:54:23;;;;;;;5.00;1.00;;;;;;;0.77;93.60;98106.80;108043;1269;22536;-81
2023/03/11 07:56:54;;;;;;;4.60;0.90;;;;;;;0.76;93.91;98114.23;108628;1276;22531;-79
2023/03/11 07:59:25;;;;;;;4.20;1.00;;;;;;;0.73;93.83;98129.05;108715;1276;22520;-80
2023/03/11 08:01:55;;;;;;;4.50;1.10;;;;;;;0.72;93.69;98132.73;108307;1273;22532;-81
2023/03/11 08:04:27;;;;;;;3.60;0.80;;;;;;;0.70;94.27;98146.69;108173;1275;22572;-79
2023/03/11 08:06:57;;;;;;;2.50;0.60;;;;;;;0.68;94.30;98151.48;107774;1273;25421;-81
2023/03/11 08:09:28;;;;;;;3.40;0.80;;;;;;;0.67;94.52;98158.92;108110;1273;22581;-81
2023/03/11 08:11:59;;;;;;;3.40;0.80;;;;;;;0.66;94.98;98177.23;108216;1276;22679;-78
2023/03/11 08:14:30;;;;;;;3.90;1.00;;;;;;;0.66;95.33;98184.33;107978;1273;22562;-78
2023/03/11 08:17:00;;;;;;;3.90;1.00;;;;;;;0.66;95.35;98195.67;107636;1276;22536;-79
2023/03/11 08:19:31;;;;;;;3.90;0.80;;;;;;;0.69;95.97;98210.38;107982;1273;22540;-79
2023/03/11 08:22:05;;;;;;;3.30;0.90;;;;;;;0.72;96.39;98213.92;108120;1270;22531;-79
2023/03/11 08:24:36;;;;;;;5.60;1.00;;;;;;;0.74;96.54;98232.42;108000;1267;22484;-80
2023/03/11 08:27:08;;;;;;;4.10;1.20;;;;;;;0.76;95.89;98236.11;107751;1270;22530;-83
2023/03/11 08:29:39;;;;;;;4.10;1.00;;;;;;;0.77;95.81;98254.05;108401;1276;24279;-80
2023/03/11 08:32:10;;;;;;;4.30;1.00;;;;;;;0.79;95.37;98254.91;108423;1273;24247;-82
2023/03/11 08:34:41;;;;;;;3.90;0.90;;;;;;;0.82;95.82;98267.56;108459;1273;22608;-82
2023/03/11 08:37:12;;;;;;;5.00;1.10;;;;;;;0.84;95.33;98270.45;108504;1276;26031;-81
2023/03/11 08:39:43;;;;;;;5.60;0.90;;;;;;;0.85;95.69;98282.41;108512;1266;25904;-82
2023/03/11 08:42:14;;;;;;;4.50;1.10;;;;;;;0.85;95.51;98301.39;108442;1269;22571;-82
2023/03/11 08:44:45;;;;;;;4.60;0.90;;;;;;;0.85;95.18;98301.34;108564;1271;22552;-83
2023/03/11 08:47:16;;;;;;;4.80;1.50;;;;;;;0.85;95.39;98318.98;108740;1270;25636;-84
2023/03/11 08:49:47;;;;;;;4.80;1.00;;;;;;;0.85;95.58;98322.36;108639;1260;22526;-83
2023/03/11 08:52:18;;;;;;;4.80;1.00;;;;;;;0.85;95.49;98323.13;108545;1270;25661;-81
2023/03/11 08:54:49;;;;;;;3.90;1.00;;;;;;;0.86;95.78;98337.84;108486;1270;23430;-81
2023/03/11 08:57:20;;;;;;;3.60;0.90;;;;;;;0.87;95.73;98357.77;108479;1269;24040;-81
2023/03/11 08:59:51;;;;;;;4.40;1.00;;;;;;;0.85;95.54;98361.38;108423;1276;25627;-80
2023/03/11 09:02:22;;;;;;;2.20;0.80;;;;;;;0.84;95.92;98369.88;108424;1276;22508;-82
2023/03/11 09:04:53;;;;;;;3.40;1.00;;;;;;;0.83;96.36;98371.26;108525;1270;22628;-82
2023/03/11 09:07:25;;;;;;;4.70;1.10;;;;;;;0.83;96.34;98390.48;108538;1270;22685;-81
2023/03/11 09:09:56;;;;;;;4.00;1.00;;;;;;;0.83;95.98;98388.39;108542;1273;22537;-81
2023/03/11 09:12:27;;;;;;;3.90;0.70;;;;;;;0.83;96.24;98406.48;108473;1275;23396;-81
2023/03/11 09:14:58;;;;;;;3.90;0.80;;;;;;;0.84;96.17;98410.61;108464;1269;22528;-83
2023/03/11 09:17:29;;;;;;;3.80;0.80;;;;;;;0.86;95.75;98421.04;108379;1276;22595;-82
2023/03/11 09:20:00;;;;;;;3.90;0.80;;;;;;;0.88;95.44;98436.98;108465;1269;25511;-82
2023/03/11 09:22:32;;;;;;;3.60;0.70;;;;;;;0.92;95.37;98443.17;108506;1269;22580;-81
2023/03/11 09:25:03;;;;;;;3.30;0.80;;;;;;;0.95;95.43;98447.90;108620;1273;23943;-81
2023/03/11 09:27:34;;;;;;;3.20;0.60;;;;;;;0.97;95.27;98460.22;108576;1269;23030;-81
2023/03/11 09:30:06;;;;;;;3.20;0.80;;;;;;;0.97;94.80;98463.11;108501;1270;23091;-84
2023/03/11 09:32:37;;;;;;;2.40;0.70;;;;;;;0.98;95.00;98470.86;108489;1269;23950;-84
2023/03/11 09:35:09;;;;;;;2.90;0.80;;;;;;;0.97;94.37;98487.20;108386;1270;25573;-83
2023/03/11 09:37:40;;;;;;;3.50;1.00;;;;;;;0.97;94.05;98485.44;108475;1273;23866;-84
2023/03/11 09:40:16;;;;;;;4.30;1.10;;;;;;;0.97;94.26;98487.14;108340;1273;25416;-82
2023/03/11 09:42:57;;;;;;;4.10;0.70;;;;;;;1.01;94.22;98491.77;108589;1273;23319;-83
2023/03/11 09:45:31;;;;;;;2.50;0.70;;;;;;;1.03;94.21;98502.09;108487;1270;22641;-83
2023/03/11 09:48:17;;;;;;;4.60;0.90;;;;;;;1.08;93.97;98516.88;108766;1276;22562;-84
2023/03/11 09:50:52;;;;;;;3.20;0.50;;;;;;;1.14;93.75;98526.23;108624;1273;23669;-84
2023/03/11 09:53:38;;;;;;;4.90;0.80;;;;;;;1.18;93.09;98544.05;108829;1268;22547;-84
2023/03/11 09:56:12;;;;;;;3.40;0.70;;;;;;;1.18;92.42;98545.60;108911;1265;22566;-83
2023/03/11 09:58:47;;;;;;;3.00;0.80;;;;;;;1.18;92.28;98565.64;108504;1269;22527;-84
2023/03/11 10:01:23;;;;;;;2.90;0.60;;;;;;;1.18;92.14;98570.58;108437;1269;22560;-85
2023/03/11 10:04:04;;;;;;;4.20;0.70;;;;;;;1.21;91.84;98582.15;108503;1261;22977;-85
2023/03/11 10:06:36;;;;;;;3.30;0.60;;;;;;;1.23;91.40;98588.73;109843;1269;23288;-85
2023/03/11 10:09:33;;;;;;;3.10;0.70;;;;;;;1.27;91.27;98586.23;108453;1265;22491;-83
2023/03/11 10:12:37;;;;;;;2.10;0.70;;;;;;;1.30;90.57;98599.58;108509;1276;22485;-85
2023/03/11 10:15:20;;;;;;;4.80;0.60;;;;;;;1.31;89.85;98609.84;108433;1269;25429;-85
2023/03/11 10:18:03;;;;;;;3.50;0.70;;;;;;;1.31;90.21;98606.23;108557;1276;22572;-85
2023/03/11 10:20:42;;;;;;;2.90;0.60;;;;;;;1.33;91.07;98610.95;108374;1276;22532;-85
2023/03/11 10:23:26;;;;;;;3.50;0.70;;;;;;;1.36;90.90;98623.48;108405;1270;22530;-81
2023/03/11 10:26:06;;;;;;;2.60;0.60;;;;;;;1.36;91.65;98624.49;108561;1268;23046;-86
2023/03/11 10:28:45;;;;;;;4.90;0.60;;;;;;;1.35;91.71;98627.58;108593;1276;22495;-85
2023/03/11 10:31:24;;;;;;;3.10;0.90;;;;;;;1.34;91.82;98632.89;108611;1273;22666;-84
2023/03/11 10:34:01;;;;;;;3.70;0.80;;;;;;;1.32;91.76;98649.61;108285;1269;22548;-84
2023/03/11 10:36:52;;;;;;;4.30;0.80;;;;;;;1.31;91.83;98653.92;108473;1261;22543;-84
2023/03/11 10:39:26;;;;;;;2.80;0.70;;;;;;;1.27;92.06;98656.20;108293;1269;23321;-83
2023/03/11 10:42:02;;;;;;;5.90;1.00;;;;;;;1.26;92.18;98670.29;108214;1276;23005;-83
2023/03/11 10:44:36;;;;;;;3.80;0.70;;;;;;;1.26;92.12;98668.57;108894;1269;22564;-84
2023/03/11 10:47:15;;;;;;;4.00;0.70;;;;;;;1.28;91.58;98684.52;109114;1268;22380;-84
2023/03/11 10:49:47;;;;;;;3.50;0.90;;;;;;;1.30;91.73;98692.44;109116;1269;25350;-84
2023/03/11 10:52:17;;;;;;;5.40;1.00;;;;;;;1.34;91.15;98708.23;108318;1273;24212;-84
2023/03/11 10:54:59;;;;;;;2.80;0.80;;;;;;;1.35;90.33;98717.84;108404;1273;23115;-83
2023/03/11 10:57:33;;;;;;;7.60;0.90;;;;;;;1.35;89.39;98706.38;108436;1269;24649;-83
2023/03/11 11:00:11;;;;;;;4.50;1.00;;;;;;;1.37;89.17;98711.09;108309;1276;26554;-84
2023/03/11 11:02:50;;;;;;;4.20;0.90;;;;;;;1.40;88.32;98727.39;108390;1269;23189;-84
2023/03/11 11:05:32;;;;;;;4.40;0.90;;;;;;;1.46;89.16;98714.51;108454;1262;25282;-84
2023/03/11 11:08:14;;;;;;;4.10;0.90;;;;;;;1.54;89.41;98726.82;108512;1273;23835;-84
2023/03/11 11:10:53;;;;;;;5.80;1.50;;;;;;;1.61;88.04;98735.18;108357;1269;23698;-83
2023/03/11 11:13:29;;;;;;;4.80;0.90;;;;;;;1.65;87.00;98727.95;108288;1276;22565;-83
2023/03/11 11:16:02;;;;;;;5.30;1.00;;;;;;;1.66;87.08;98735.98;108314;1268;22615;-83
2023/03/11 11:18:36;;;;;;;6.60;1.30;;;;;;;1.64;86.62;98732.92;108246;1276;22538;-83
2023/03/11 11:21:09;;;;;;;5.30;1.10;;;;;;;1.62;88.40;98739.61;108263;1272;22550;-84
2023/03/11 11:23:46;;;;;;;5.30;1.00;;;;;;;1.60;87.68;98751.22;108199;1270;23810;-83
2023/03/11 11:26:21;;;;;;;6.20;1.20;;;;;;;1.59;87.75;98764.27;108203;1269;23407;-82
2023/03/11 11:29:13;;;;;;;8.00;1.40;;;;;;;1.57;86.92;98777.00;108240;1273;25233;-83
2023/03/11 11:31:45;;;;;;;7.00;1.30;;;;;;;1.61;87.36;98752.84;108277;1273;22650;-83
2023/03/11 11:34:34;;;;;;;5.20;1.20;;;;;;;1.72;86.52;98767.06;108328;1270;24025;-84
2023/03/11 11:37:12;;;;;;;12.80;3.20;;;;;;;1.87;87.03;98773.56;108212;1268;22587;-85
2023/03/11 11:39:59;;;;;;;5.40;1.50;;;;;;;1.97;85.30;98790.98;108319;1273;25669;-84
2023/03/11 11:42:32;;;;;;;6.00;1.00;;;;;;;1.96;84.06;98781.52;108171;1269;23977;-85
2023/03/11 11:45:11;;;;;;;9.40;1.80;;;;;;;1.86;85.81;98791.06;108132;1270;22564;-84
2023/03/11 11:47:48;;;;;;;8.70;1.10;;;;;;;1.77;87.12;98806.43;108301;1253;22527;-85
2023/03/11 11:50:29;;;;;;;5.90;1.30;;;;;;;1.61;87.44;98831.90;108560;1269;22471;-86
2023/03/11 11:53:11;;;;;;;5.50;1.20;;;;;;;1.50;88.12;98811.81;108811;1269;22543;-86
2023/03/11 11:55:48;;;;;;;7.80;1.20;;;;;;;1.53;88.31;98817.79;108312;1269;22507;-86
2023/03/11 11:58:20;;;;;;;9.50;1.10;;;;;;;1.60;87.76;98827.95;108724;1270;22564;-87
2023/03/11 12:01:19;;;;;;;3.50;1.00;;;;;;;1.65;86.27;98832.33;109021;1267;23698;-87